Big Bear Station Historical Data
Daily Summary for February 11, 2017 Units:  English    Metric   Both
« Previous Day
Next Day »
Daily Weekly Monthly Yearly Custom
  High: Low: Average:
Temperature: 41.4 °F 32.7 °F 36.5 °F
Dew Point: 37.1 °F 16.5 °F 32.2 °F
Humidity: 99 % 40 % 86 %
Wind Speed: 6.3 mph 0.0 mph 1.2 mph
Wind Gust: -999.0 mph - -
Wind:- - West
Pressure: 30.11 in 30.07 in -
Precipitation: 0.08 in    
Historical Graphs
 
 
Tabular Data for February 11, 2017
Time Temperature Dew Point Pressure Wind Wind Speed Wind Gust Humidity Rainfall Rate (Hourly)
00:07 37.0 °F 36.0 °F 30.11 in NNW 1.7 mph -999.0 mph 96 % 0 in
00:23 36.7 °F 35.7 °F 30.10 in NW 1.1 mph -999.0 mph 96 % 0 in
00:38 36.5 °F 35.5 °F 30.10 in NW 1.7 mph -999.0 mph 96 % 0 in
00:53 36.3 °F 35.0 °F 30.10 in SSW 3.7 mph -999.0 mph 95 % 0 in
01:09 36.1 °F 34.5 °F 30.10 in WSW 2.2 mph -999.0 mph 94 % 0 in
01:24 36.0 °F 34.4 °F 30.10 in Calm   -999.0 mph 94 % 0 in
01:40 36.0 °F 34.7 °F 30.10 in South 1.1 mph -999.0 mph 95 % 0 in
01:55 35.8 °F 34.8 °F 30.09 in NW 3.2 mph -999.0 mph 96 % 0 in
02:10 36.0 °F 35.0 °F 30.09 in Calm   -999.0 mph 96 % 0 in
02:25 36.0 °F 35.2 °F 30.08 in NW 3.2 mph -999.0 mph 97 % 0 in
02:40 36.5 °F 36.0 °F 30.09 in SSW 2.7 mph -999.0 mph 98 % 0 in
02:56 35.8 °F 35.3 °F 30.10 in South 3.7 mph -999.0 mph 98 % 0 in
03:11 35.6 °F 35.1 °F 30.09 in Calm   -999.0 mph 98 % 0 in
03:26 35.6 °F 35.1 °F 30.09 in SW 2.2 mph -999.0 mph 98 % 0 in
03:41 35.4 °F 34.9 °F 30.09 in Calm   -999.0 mph 98 % 0 in
03:56 35.4 °F 34.9 °F 30.07 in Calm   -999.0 mph 98 % 0 in
04:12 35.4 °F 34.9 °F 30.07 in West 1.1 mph -999.0 mph 98 % 0 in
04:27 35.2 °F 34.7 °F 30.07 in NW 3.7 mph -999.0 mph 98 % 0 in
04:42 35.2 °F 34.7 °F 30.07 in NW 1.7 mph -999.0 mph 98 % 0 in
04:57 35.2 °F 34.7 °F 30.07 in South 1.1 mph -999.0 mph 98 % 0 in
05:12 35.2 °F 34.9 °F 30.07 in NNW 4.2 mph -999.0 mph 99 % 0 in
05:28 35.2 °F 34.9 °F 30.07 in Calm   -999.0 mph 99 % 0 in
05:43 35.2 °F 34.9 °F 30.08 in SSE 1.7 mph -999.0 mph 99 % 0 in
05:58 35.4 °F 35.1 °F 30.08 in Calm   -999.0 mph 99 % 0 in
06:13 35.4 °F 35.1 °F 30.08 in West 2.7 mph -999.0 mph 99 % 0 in
06:28 35.6 °F 35.3 °F 30.08 in SSW 2.7 mph -999.0 mph 99 % 0 in
06:44 35.6 °F 35.3 °F 30.08 in West 1.1 mph -999.0 mph 99 % 0 in
06:59 35.8 °F 35.5 °F 30.08 in Calm   -999.0 mph 99 % 0 in
07:14 36.3 °F 36.0 °F 30.08 in NW 1.7 mph -999.0 mph 99 % 0 in
07:29 36.9 °F 36.6 °F 30.08 in Calm   -999.0 mph 99 % 0 in
07:45 37.2 °F 36.9 °F 30.08 in Calm   -999.0 mph 99 % 0 in
08:00 37.2 °F 36.9 °F 30.08 in North 1.1 mph -999.0 mph 99 % 0 in
08:15 37.2 °F 36.7 °F 30.08 in Calm   -999.0 mph 98 % 0 in
08:30 37.9 °F 36.9 °F 30.09 in NW 3.2 mph -999.0 mph 96 % 0 in
08:45 38.7 °F 37.1 °F 30.09 in West 1.7 mph -999.0 mph 94 % 0 in
09:01 38.7 °F 36.3 °F 30.09 in ESE 2.7 mph -999.0 mph 91 % 0 in
09:16 38.7 °F 35.5 °F 30.09 in South 2.7 mph -999.0 mph 88 % 0 in
09:32 38.8 °F 35.3 °F 30.09 in North 1.1 mph -999.0 mph 87 % 0 in
09:47 38.8 °F 35.3 °F 30.09 in West 1.7 mph -999.0 mph 87 % 0 in
10:02 38.8 °F 35.6 °F 30.10 in WSW 2.7 mph -999.0 mph 88 % 0 in
10:17 38.5 °F 34.7 °F 30.10 in SW 3.7 mph -999.0 mph 86 % 0 in
10:32 39.9 °F 36.1 °F 30.10 in NW 2.7 mph -999.0 mph 86 % 0 in
10:48 39.2 °F 35.4 °F 30.10 in Calm   -999.0 mph 86 % 0 in
11:03 38.8 °F 34.7 °F 30.10 in NW 4.2 mph -999.0 mph 85 % 0 in
11:18 38.7 °F 34.0 °F 30.10 in North 2.2 mph -999.0 mph 83 % 0 in
11:34 38.1 °F 33.4 °F 30.10 in NNW 3.7 mph -999.0 mph 83 % 0 in
11:50 37.8 °F 33.1 °F 30.10 in WNW 6.3 mph -999.0 mph 83 % 0 in
12:05 39.6 °F 33.9 °F 30.10 in NNE 2.7 mph -999.0 mph 80 % 0 in
12:20 39.6 °F 33.3 °F 30.10 in Calm   -999.0 mph 78 % 0 in
12:35 39.9 °F 32.6 °F 30.09 in NNW 3.7 mph -999.0 mph 75 % 0 in
12:51 40.1 °F 33.5 °F 30.09 in WNW 2.2 mph -999.0 mph 77 % 0 in
13:06 41.4 °F 33.1 °F 30.08 in WNW 3.2 mph -999.0 mph 72 % 0 in
13:21 41.4 °F 31.6 °F 30.09 in Calm   -999.0 mph 68 % 0 in
13:36 41.0 °F 31.2 °F 30.09 in NNW 3.7 mph -999.0 mph 68 % 0 in
13:51 39.9 °F 33.0 °F 30.09 in NNW 2.7 mph -999.0 mph 76 % 0 in
14:07 40.3 °F 29.1 °F 30.09 in SE 2.2 mph -999.0 mph 64 % 0 in
14:22 39.9 °F 29.1 °F 30.09 in Calm   -999.0 mph 65 % 0 in
14:37 39.6 °F 28.0 °F 30.09 in ESE 2.2 mph -999.0 mph 63 % 0 in
14:52 39.9 °F 27.5 °F 30.09 in Calm   -999.0 mph 61 % 0 in
15:07 39.6 °F 26.0 °F 30.09 in Calm   -999.0 mph 58 % 0 in
15:23 39.7 °F 25.3 °F 30.09 in North 1.7 mph -999.0 mph 56 % 0 in
15:38 39.2 °F 22.1 °F 30.09 in South 1.1 mph -999.0 mph 50 % 0 in
15:53 38.8 °F 16.5 °F 30.08 in Calm   -999.0 mph 40 % 0 in
16:09 37.8 °F 18.9 °F 30.08 in NW 2.2 mph -999.0 mph 46 % 0 in
16:24 37.2 °F 21.2 °F 30.08 in Calm   -999.0 mph 52 % 0 in
16:39 37.2 °F 22.1 °F 30.08 in Calm   -999.0 mph 54 % 0 in
16:54 37.2 °F 22.1 °F 30.08 in Calm   -999.0 mph 54 % 0 in
17:09 36.7 °F 23.3 °F 30.08 in Calm   -999.0 mph 58 % 0 in
17:25 36.0 °F 26.8 °F 30.09 in Calm   -999.0 mph 69 % 0 in
17:40 35.1 °F 26.0 °F 30.09 in Calm   -999.0 mph 69 % 0 in
17:55 34.5 °F 27.4 °F 30.09 in Calm   -999.0 mph 75 % 0 in
18:10 34.3 °F 28.2 °F 30.10 in Calm   -999.0 mph 78 % 0 in
18:25 34.2 °F 29.3 °F 30.10 in Calm   -999.0 mph 82 % 0 in
18:41 34.0 °F 30.3 °F 30.09 in Calm   -999.0 mph 86 % 0 in
18:56 34.2 °F 30.7 °F 30.10 in Calm   -999.0 mph 87 % 0 in
19:11 34.2 °F 31.0 °F 30.10 in Calm   -999.0 mph 88 % 0 in
19:26 34.2 °F 31.0 °F 30.09 in Calm   -999.0 mph 88 % 0 in
19:42 34.0 °F 30.8 °F 30.10 in Calm   -999.0 mph 88 % 0 in
19:57 34.0 °F 31.4 °F 30.10 in Calm   -999.0 mph 90 % 0 in
20:13 34.0 °F 31.1 °F 30.10 in Calm   -999.0 mph 89 % 0 in
20:28 34.0 °F 31.4 °F 30.10 in Calm   -999.0 mph 90 % 0 in
20:44 33.8 °F 31.2 °F 30.10 in Calm   -999.0 mph 90 % 0 in
20:59 33.4 °F 31.1 °F 30.10 in Calm   -999.0 mph 91 % 0 in
21:14 33.1 °F 30.8 °F 30.10 in Calm   -999.0 mph 91 % 0 in
21:29 32.9 °F 30.8 °F 30.10 in Calm   -999.0 mph 92 % 0 in
21:44 32.7 °F 30.6 °F 30.10 in Calm   -999.0 mph 92 % 0 in
22:00 32.9 °F 31.1 °F 30.10 in Calm   -999.0 mph 93 % 0 in
22:15 33.1 °F 31.3 °F 30.10 in Calm   -999.0 mph 93 % 0 in
22:30 33.6 °F 32.1 °F 30.10 in Calm   -999.0 mph 94 % 0 in
22:45 33.6 °F 32.1 °F 30.10 in Calm   -999.0 mph 94 % 0 in
23:00 33.8 °F 32.3 °F 30.10 in Calm   -999.0 mph 94 % 0 in
23:16 33.6 °F 32.1 °F 30.10 in Calm   -999.0 mph 94 % 0 in
23:31 33.4 °F 31.9 °F 30.10 in Calm   -999.0 mph 94 % 0 in
23:46 32.9 °F 31.4 °F 30.10 in Calm   -999.0 mph 94 % 0 in
Big Bear CA Weather
Compliments of Weather Underground - 1.5 mb